Time;durP1;ratioP1;P1;durP2;ratioP2;P2;SDS_P1;SDS_P2;PMS_P1;PMS_P2;Temp;Humidity;BMP_temperature;BMP_pressure;BME280_temperature;BME280_humidity;BME280_pressure;Samples;Min_cycle;Max_cycle;Signal;HPM_P1;HPM_P2
2021/01/14 00:01:28;;;;;;;9.70;1.62;;;;;;;0.16;85.59;98900.17;120020;1148;22944;-62
2021/01/14 00:03:58;;;;;;;9.35;1.67;;;;;;;0.16;85.24;98894.69;120321;1148;22924;-62
2021/01/14 00:06:28;;;;;;;7.47;1.37;;;;;;;0.15;84.93;98895.10;120301;1148;26345;-62
2021/01/14 00:08:58;;;;;;;6.97;1.40;;;;;;;0.13;84.71;98898.30;120044;1148;22965;-65
2021/01/14 00:11:29;;;;;;;7.30;1.32;;;;;;;0.12;84.64;98894.03;120054;1148;22953;-62
2021/01/14 00:13:59;;;;;;;13.07;1.80;;;;;;;0.09;84.61;98894.91;120014;1148;25950;-62
2021/01/14 00:16:28;;;;;;;;;;;;;;;0.07;84.67;98886.34;120157;1148;22926;-63
2021/01/14 00:18:58;;;;;;;14.57;2.33;;;;;;;0.04;85.25;98884.50;120008;1148;21705;-62
2021/01/14 00:21:28;;;;;;;11.48;1.70;;;;;;;0.02;84.83;98877.91;119914;1148;22957;-62
2021/01/14 00:23:58;;;;;;;7.20;1.80;;;;;;;0.00;85.30;98875.61;120177;1148;22957;-62
2021/01/14 00:26:28;;;;;;;9.48;2.17;;;;;;;-0.01;85.27;98879.55;120032;1148;23065;-62
2021/01/14 00:28:58;;;;;;;11.03;2.17;;;;;;;-0.04;84.44;98878.45;119889;1148;22890;-64
2021/01/14 00:31:30;;;;;;;10.20;1.93;;;;;;;-0.06;84.54;98878.13;120844;1109;22920;-60
2021/01/14 00:34:00;;;;;;;9.63;1.80;;;;;;;-0.10;85.14;98879.44;120391;1148;23183;-61
2021/01/14 00:37:50;;;;;;;9.35;2.27;;;;;;;-0.12;84.65;98885.38;120223;1148;22934;-61
2021/01/14 00:39:26;;;;;;;9.80;1.90;;;;;;;-0.15;84.49;98883.52;120169;1148;22931;-61
2021/01/14 00:41:57;;;;;;;8.70;1.90;;;;;;;-0.14;85.40;98889.75;120398;1148;22944;-62
2021/01/14 00:44:27;;;;;;;10.53;2.17;;;;;;;-0.14;85.07;98890.53;120261;1148;27419;-62
2021/01/14 00:46:58;;;;;;;10.57;2.20;;;;;;;-0.13;85.66;98888.56;120288;1148;26828;-62
2021/01/14 00:49:28;;;;;;;7.10;1.50;;;;;;;-0.12;85.80;98879.11;120221;1148;22885;-62
2021/01/14 00:51:58;;;;;;;7.40;1.40;;;;;;;-0.13;85.67;98885.81;120332;1148;22923;-62
2021/01/14 00:54:28;;;;;;;7.65;1.10;;;;;;;-0.12;85.80;98881.86;122009;1148;23019;-62
2021/01/14 00:56:58;;;;;;;10.82;1.10;;;;;;;-0.14;86.20;98881.53;120222;1148;22933;-61
2021/01/14 00:59:28;;;;;;;6.10;1.30;;;;;;;-0.16;85.79;98878.45;120148;1148;24343;-62
2021/01/14 01:02:00;;;;;;;4.58;0.88;;;;;;;-0.17;86.34;98879.68;120273;1148;22954;-61
2021/01/14 01:04:30;;;;;;;5.27;0.90;;;;;;;-0.19;85.61;98890.32;120151;1148;22869;-62
2021/01/14 01:06:59;;;;;;;5.72;0.93;;;;;;;-0.20;86.24;98880.55;120165;1148;23013;-61
2021/01/14 01:09:29;;;;;;;5.97;1.12;;;;;;;-0.22;85.91;98889.22;120189;1148;26360;-62
2021/01/14 01:12:00;;;;;;;3.17;0.70;;;;;;;-0.23;85.72;98886.92;120171;1148;27698;-62
2021/01/14 01:14:29;;;;;;;;;;;;;;;-0.25;85.72;98889.34;120302;1148;25944;-62
2021/01/14 01:16:59;;;;;;;4.55;0.90;;;;;;;-0.27;85.82;98894.49;120174;1149;23287;-61
2021/01/14 01:19:29;;;;;;;5.73;1.20;;;;;;;-0.29;86.48;98896.91;119982;1148;23087;-60
2021/01/14 01:21:59;;;;;;;5.15;1.00;;;;;;;-0.28;86.65;98906.66;120301;1148;22923;-61
2021/01/14 01:24:30;;;;;;;5.85;1.27;;;;;;;-0.30;86.59;98909.84;120356;1148;27331;-62
2021/01/14 01:27:00;;;;;;;5.80;1.20;;;;;;;-0.28;86.71;98906.66;120379;1148;27260;-62
2021/01/14 01:29:30;;;;;;;4.80;1.00;;;;;;;-0.29;86.67;98905.88;120253;1148;23027;-62
2021/01/14 01:32:00;;;;;;;8.90;1.32;;;;;;;-0.28;86.22;98912.14;120262;1148;24349;-61
2021/01/14 01:34:29;;;;;;;;;;;;;;;-0.28;86.54;98915.66;120366;1148;26360;-61
2021/01/14 01:36:59;;;;;;;5.60;1.20;;;;;;;-0.28;85.93;98918.40;120366;1150;21621;-61
2021/01/14 01:39:29;;;;;;;6.03;1.30;;;;;;;-0.29;86.24;98919.59;120234;1148;22922;-61
2021/01/14 01:41:59;;;;;;;4.17;1.03;;;;;;;-0.28;86.67;98929.37;120215;1148;22891;-62
2021/01/14 01:44:29;;;;;;;5.03;1.10;;;;;;;-0.27;86.96;98927.40;120479;1148;22958;-62
2021/01/14 01:47:06;;;;;;;7.92;1.47;;;;;;;-0.28;86.58;98940.34;120189;1148;28174;-62
2021/01/14 01:49:37;;;;;;;7.30;1.27;;;;;;;-0.29;86.16;98941.53;120280;1148;22926;-62
2021/01/14 01:52:08;;;;;;;8.43;1.53;;;;;;;-0.28;86.43;98943.08;120379;1148;26392;-61
2021/01/14 01:54:38;;;;;;;5.93;1.23;;;;;;;-0.28;86.93;98936.81;120304;1148;22926;-62
2021/01/14 01:57:10;;;;;;;4.00;0.70;;;;;;;-0.28;86.47;98936.81;120246;1148;22958;-61
2021/01/14 01:59:40;;;;;;;5.93;0.70;;;;;;;-0.30;87.02;98934.52;120302;1148;22922;-62
2021/01/14 02:02:25;;;;;;;2.45;0.50;;;;;;;-0.32;86.88;98947.13;120503;1148;23008;-61
2021/01/14 02:04:56;;;;;;;2.53;0.73;;;;;;;-0.33;86.72;98962.80;120322;1148;23074;-61
2021/01/14 02:07:42;;;;;;;4.35;0.80;;;;;;;-0.36;86.95;98958.21;120422;1148;22942;-62
2021/01/14 02:10:19;;;;;;;2.37;0.50;;;;;;;-0.37;86.95;98975.85;120210;1148;27408;-62
2021/01/14 02:13:00;;;;;;;3.57;0.50;;;;;;;-0.39;86.20;98963.78;120211;1148;22979;-62
2021/01/14 02:15:31;;;;;;;;;;;;;;;-0.43;86.58;98965.85;120257;1148;24562;-62
2021/01/14 02:18:03;;;;;;;3.35;0.40;;;;;;;-0.46;86.71;98969.48;120241;1148;21573;-63
2021/01/14 02:20:34;;;;;;;1.57;0.50;;;;;;;-0.54;86.09;98966.19;120203;1148;23083;-61
2021/01/14 02:23:11;;;;;;;5.25;0.50;;;;;;;-0.57;86.58;98960.78;120209;1148;23170;-61
2021/01/14 02:26:09;;;;;;;3.15;0.70;;;;;;;-0.60;86.76;98956.94;120148;1148;24713;-62
2021/01/14 02:28:40;;;;;;;4.75;0.70;;;;;;;-0.63;86.95;98966.05;120407;1149;22975;-62
2021/01/14 02:31:11;;;;;;;5.07;0.60;;;;;;;-0.65;86.07;98968.45;120283;1148;22918;-62
2021/01/14 02:33:41;;;;;;;3.90;0.62;;;;;;;-0.66;86.94;98966.90;120120;1148;22948;-62
2021/01/14 02:36:10;;;;;;;;;;;;;;;-0.67;86.61;98970.86;120828;1148;22948;-61
2021/01/14 02:38:40;;;;;;;3.47;0.53;;;;;;;-0.70;86.80;98968.22;120171;1148;23211;-63
2021/01/14 02:41:11;;;;;;;;;;;;;;;-0.72;86.51;98976.11;120119;1148;22923;-62
2021/01/14 02:43:42;;;;;;;3.93;0.60;;;;;;;-0.74;86.25;98975.74;120257;1148;23170;-62
2021/01/14 02:46:13;;;;;;;4.13;0.67;;;;;;;-0.76;86.75;98980.89;120204;1148;22910;-62
2021/01/14 02:48:44;;;;;;;;;;;;;;;-0.77;86.66;98976.62;120099;1148;23061;-62
2021/01/14 02:51:19;;;;;;;3.47;1.00;;;;;;;-0.79;86.25;98987.25;120024;1150;23313;-62
2021/01/14 02:53:53;;;;;;;2.37;0.60;;;;;;;-0.82;86.31;99003.36;120156;1148;22981;-62
2021/01/14 02:56:26;;;;;;;2.90;0.77;;;;;;;-0.84;86.09;98992.06;120302;1148;26150;-62
2021/01/14 02:58:57;;;;;;;5.83;0.80;;;;;;;-0.85;86.55;98997.98;120083;1148;22982;-62
2021/01/14 03:01:28;;;;;;;6.50;1.60;;;;;;;-0.88;86.20;99002.34;120124;1148;26363;-62
2021/01/14 03:03:58;;;;;;;7.62;0.98;;;;;;;-0.89;86.23;99003.53;120076;1148;22936;-62
2021/01/14 03:06:27;;;;;;;4.42;1.10;;;;;;;-0.91;86.22;99010.67;120092;1148;23075;-62
2021/01/14 03:08:58;;;;;;;4.78;0.88;;;;;;;-0.94;86.72;99014.26;120024;1148;22919;-63
2021/01/14 03:11:29;;;;;;;6.93;1.20;;;;;;;-0.95;86.23;99012.70;120058;1150;23090;-62
2021/01/14 03:14:00;;;;;;;3.80;0.80;;;;;;;-0.97;86.07;99007.66;120156;1148;27105;-63
2021/01/14 03:16:30;;;;;;;9.03;1.20;;;;;;;-0.96;86.28;99017.44;120118;1148;28499;-63
2021/01/14 03:19:01;;;;;;;2.75;0.82;;;;;;;-0.95;86.78;99021.70;120156;1148;22926;-62
2021/01/14 03:21:31;;;;;;;8.17;1.30;;;;;;;-0.95;86.88;99024.44;120036;1149;22955;-62
2021/01/14 03:24:01;;;;;;;4.05;1.00;;;;;;;-0.94;86.97;99023.25;120139;1151;23421;-62
2021/01/14 03:26:34;;;;;;;6.10;1.07;;;;;;;-0.91;85.98;99027.11;120205;1151;22926;-61
2021/01/14 03:29:05;;;;;;;7.43;1.00;;;;;;;-0.91;86.15;99030.59;120069;1148;22937;-63
2021/01/14 03:31:35;;;;;;;6.35;1.02;;;;;;;-0.88;86.25;99043.44;120085;1148;23058;-61
2021/01/14 03:34:05;;;;;;;4.53;1.20;;;;;;;-0.86;86.88;99041.04;120073;1148;22944;-59
2021/01/14 03:36:35;;;;;;;4.30;1.17;;;;;;;-0.85;86.99;99042.56;120192;1148;22955;-62
2021/01/14 03:39:05;;;;;;;5.10;1.15;;;;;;;-0.84;86.16;99044.12;120064;1148;22878;-61
2021/01/14 03:41:36;;;;;;;4.15;0.93;;;;;;;-0.82;86.93;99047.20;120068;1148;22958;-63
2021/01/14 03:44:05;;;;;;;;;;;;;;;-0.82;86.14;99049.16;120183;1148;23057;-61
2021/01/14 03:46:35;;;;;;;6.37;1.00;;;;;;;-0.81;86.73;99050.72;120196;1148;23301;-62
2021/01/14 03:49:06;;;;;;;4.23;0.80;;;;;;;-0.82;86.80;99052.67;119999;1148;22937;-62
2021/01/14 03:51:36;;;;;;;3.97;0.80;;;;;;;-0.82;85.91;99052.67;120045;1148;22923;-62
2021/01/14 03:54:06;;;;;;;4.97;1.10;;;;;;;-0.83;86.08;99056.60;120052;1148;23086;-61
2021/01/14 03:56:40;;;;;;;4.30;0.82;;;;;;;-0.84;85.78;99057.04;120184;1148;23202;-61
2021/01/14 03:59:10;;;;;;;4.00;1.13;;;;;;;-0.86;85.76;99060.22;120101;1148;23028;-62
2021/01/14 04:01:40;;;;;;;6.62;1.00;;;;;;;-0.85;85.79;99063.73;120087;1148;23033;-62
2021/01/14 04:04:10;;;;;;;4.27;0.80;;;;;;;-0.87;86.66;99064.14;120087;1148;23087;-62
2021/01/14 04:06:40;;;;;;;6.10;0.90;;;;;;;-0.86;86.07;99071.18;120202;1148;22923;-62
2021/01/14 04:09:10;;;;;;;4.42;0.90;;;;;;;-0.85;86.64;99069.96;120064;1148;27233;-61
2021/01/14 04:11:41;;;;;;;4.10;1.20;;;;;;;-0.87;86.26;99066.88;120087;1148;24830;-62
2021/01/14 04:14:12;;;;;;;6.40;0.98;;;;;;;-0.88;86.64;99064.58;120186;1148;23015;-62
2021/01/14 04:16:42;;;;;;;4.20;0.87;;;;;;;-0.89;86.23;99069.28;120086;1148;24697;-62
2021/01/14 04:19:12;;;;;;;8.78;0.90;;;;;;;-0.92;86.53;99075.64;120084;1148;22944;-63
2021/01/14 04:21:43;;;;;;;6.83;1.10;;;;;;;-0.94;86.60;99077.27;120119;1148;23086;-62
2021/01/14 04:24:12;;;;;;;;;;;;;;;-0.96;86.51;99083.18;120218;1148;22974;-62
2021/01/14 04:26:42;;;;;;;8.60;1.20;;;;;;;-0.97;85.68;99081.63;120080;1150;23610;-61
2021/01/14 04:29:12;;;;;;;5.43;1.00;;;;;;;-0.98;86.25;99084.80;120168;1148;25576;-62
2021/01/14 04:31:42;;;;;;;6.40;1.10;;;;;;;-0.98;86.28;99088.31;120122;1148;22955;-62
2021/01/14 04:34:12;;;;;;;5.17;1.05;;;;;;;-0.99;86.29;99092.24;120046;1148;23093;-63
2021/01/14 04:36:42;;;;;;;7.50;1.10;;;;;;;-1.00;85.74;99098.94;120070;1148;23031;-63
2021/01/14 04:39:12;;;;;;;5.25;1.07;;;;;;;-1.02;86.28;99090.38;120084;1148;22927;-62
2021/01/14 04:41:48;;;;;;;6.62;1.37;;;;;;;-1.02;86.17;99097.81;120174;1148;22975;-63
2021/01/14 04:44:19;;;;;;;4.10;0.85;;;;;;;-1.04;85.66;99102.95;120402;1148;22959;-63
2021/01/14 04:46:50;;;;;;;;;;;;;;;-1.05;85.84;99102.17;120293;1148;22926;-63
2021/01/14 04:49:20;;;;;;;7.50;1.25;;;;;;;-1.07;86.39;99104.58;120498;1149;24181;-62
2021/01/14 04:51:58;;;;;;;8.53;1.00;;;;;;;-1.07;85.69;99110.05;120195;1149;22907;-62
2021/01/14 04:54:34;;;;;;;4.27;0.90;;;;;;;-1.08;85.82;99116.74;120271;1148;22923;-63
2021/01/14 04:57:18;;;;;;;5.65;0.80;;;;;;;-1.09;86.49;99120.66;120198;1148;22957;-61
2021/01/14 04:59:54;;;;;;;6.00;1.00;;;;;;;-1.09;85.91;99120.66;120166;1148;22923;-63
2021/01/14 05:02:26;;;;;;;8.15;1.20;;;;;;;-1.09;85.98;99120.66;120184;1148;27605;-63
2021/01/14 05:05:03;;;;;;;5.53;1.07;;;;;;;-1.09;86.12;99126.14;120100;1148;23032;-62
2021/01/14 05:07:34;;;;;;;6.43;1.00;;;;;;;-1.09;86.05;99128.11;120185;1148;22923;-62
2021/01/14 05:10:06;;;;;;;7.30;1.40;;;;;;;-1.11;86.31;99127.77;120177;1148;22947;-62
2021/01/14 05:12:41;;;;;;;4.97;1.00;;;;;;;-1.13;86.01;99139.16;120133;1148;23080;-64
2021/01/14 05:15:16;;;;;;;6.20;1.17;;;;;;;-1.15;86.07;99138.03;120189;1148;22926;-61
2021/01/14 05:17:47;;;;;;;8.23;1.30;;;;;;;-1.17;86.25;99143.95;120091;1148;22944;-63
2021/01/14 05:20:18;;;;;;;6.00;1.20;;;;;;;-1.17;86.14;99143.16;120049;1148;22922;-62
2021/01/14 05:22:51;;;;;;;6.47;1.10;;;;;;;-1.18;85.60;99149.86;120110;1148;23004;-61
2021/01/14 05:25:21;;;;;;;4.27;1.20;;;;;;;-1.22;86.09;99155.39;120083;1148;22925;-61
2021/01/14 05:27:51;;;;;;;8.40;1.70;;;;;;;-1.23;86.19;99153.87;120054;1148;22930;-61
2021/01/14 05:30:23;;;;;;;6.35;1.10;;;;;;;-1.25;86.33;99156.26;120079;1148;22934;-61
2021/01/14 05:32:53;;;;;;;5.70;1.20;;;;;;;-1.26;86.43;99162.17;120154;1148;24557;-62
2021/01/14 05:35:29;;;;;;;11.90;1.53;;;;;;;-1.27;86.41;99166.09;120123;1148;22938;-63
2021/01/14 05:38:03;;;;;;;8.37;1.67;;;;;;;-1.28;86.44;99165.31;120189;1148;22958;-63
2021/01/14 05:40:35;;;;;;;6.73;1.33;;;;;;;-1.28;86.63;99170.03;120130;1148;25973;-64
2021/01/14 05:43:07;;;;;;;11.53;2.00;;;;;;;-1.28;86.93;99178.25;120242;1148;22998;-63
2021/01/14 05:45:37;;;;;;;6.83;1.60;;;;;;;-1.28;86.44;99180.99;120346;1148;25559;-63
2021/01/14 05:48:13;;;;;;;11.18;2.27;;;;;;;-1.28;86.60;99180.99;120064;1148;22951;-63
2021/01/14 05:50:45;;;;;;;9.73;2.00;;;;;;;-1.28;86.90;99191.94;120118;1148;24557;-62
2021/01/14 05:53:20;;;;;;;19.43;2.70;;;;;;;-1.28;87.08;99186.47;120190;1148;23016;-63
2021/01/14 05:55:54;;;;;;;9.77;2.33;;;;;;;-1.28;87.01;99189.20;120123;1148;22926;-64
2021/01/14 05:58:36;;;;;;;16.13;2.57;;;;;;;-1.27;86.48;99193.47;120043;1148;23480;-64
2021/01/14 06:01:08;;;;;;;16.63;2.57;;;;;;;-1.28;86.38;99200.16;120117;1148;23087;-61
2021/01/14 06:03:38;;;;;;;14.67;2.17;;;;;;;-1.29;87.19;99196.64;120246;1148;23139;-60
2021/01/14 06:06:16;;;;;;;7.42;1.87;;;;;;;-1.29;86.56;99204.85;120050;1148;22955;-62
2021/01/14 06:08:46;;;;;;;8.40;1.50;;;;;;;-1.28;86.50;99211.86;120396;1148;23087;-61
2021/01/14 06:11:22;;;;;;;9.43;1.97;;;;;;;-1.28;86.65;99217.33;120131;1148;23081;-62
2021/01/14 06:13:53;;;;;;;10.70;1.73;;;;;;;-1.28;87.16;99222.81;120172;1148;22926;-61
2021/01/14 06:16:23;;;;;;;10.37;2.07;;;;;;;-1.27;87.26;99229.84;120089;1148;22947;-61
2021/01/14 06:19:09;;;;;;;8.88;1.70;;;;;;;-1.27;87.48;99232.58;120121;1148;25970;-62
2021/01/14 06:21:46;;;;;;;10.05;2.20;;;;;;;-1.26;87.03;99242.33;120336;1148;26097;-63
2021/01/14 06:24:25;;;;;;;9.97;2.77;;;;;;;-1.25;86.44;99237.63;120008;1148;22955;-61
2021/01/14 06:26:57;;;;;;;11.20;1.70;;;;;;;-1.24;87.13;99244.66;120103;1148;22944;-62
2021/01/14 06:29:30;;;;;;;11.63;1.90;;;;;;;-1.22;87.45;99250.48;120120;1148;23053;-63
2021/01/14 06:32:10;;;;;;;18.17;4.10;;;;;;;-1.24;86.74;99244.66;120093;1148;27172;-62
2021/01/14 06:34:42;;;;;;;15.98;3.12;;;;;;;-1.23;86.63;99254.41;120812;1109;23023;-69
2021/01/14 06:37:14;;;;;;;16.33;3.10;;;;;;;-1.23;87.01;99268.87;120110;1150;25710;-64
2021/01/14 06:39:46;;;;;;;21.67;3.67;;;;;;;-1.23;87.30;99268.09;120354;1150;23487;-67
2021/01/14 06:42:22;;;;;;;16.70;4.40;;;;;;;-1.21;87.31;99276.66;120109;1150;23034;-66
2021/01/14 06:44:58;;;;;;;17.75;3.40;;;;;;;-1.20;86.49;99284.44;120098;1150;27713;-66
2021/01/14 06:47:39;;;;;;;15.20;3.87;;;;;;;-1.19;87.17;99286.00;120081;1150;22926;-66
2021/01/14 06:50:27;;;;;;;14.60;2.97;;;;;;;-1.19;86.68;99291.48;119998;1149;22944;-67
2021/01/14 06:53:10;;;;;;;17.87;3.72;;;;;;;-1.20;86.63;99298.13;120050;1150;22982;-67
2021/01/14 06:55:40;;;;;;;14.93;4.10;;;;;;;-1.19;87.46;99294.22;120037;1150;22954;-70
2021/01/14 06:58:12;;;;;;;22.10;4.95;;;;;;;-1.16;87.06;99303.56;120099;1149;23099;-68
2021/01/14 07:00:45;;;;;;;17.23;4.97;;;;;;;-1.16;86.68;99307.05;120176;1149;22954;-68
2021/01/14 07:03:26;;;;;;;21.43;5.57;;;;;;;-1.15;86.61;99318.78;120094;1150;22985;-69
2021/01/14 07:06:13;;;;;;;21.27;4.80;;;;;;;-1.13;86.94;99322.65;120018;1150;22958;-68
2021/01/14 07:08:54;;;;;;;18.43;4.30;;;;;;;-1.14;86.79;99323.83;120084;1149;22930;-67
2021/01/14 07:11:28;;;;;;;15.85;3.90;;;;;;;-1.12;87.12;99326.16;120046;1150;27791;-66
2021/01/14 07:14:12;;;;;;;16.43;3.03;;;;;;;-1.11;86.92;99327.70;120200;1150;22899;-68
2021/01/14 07:16:48;;;;;;;15.13;4.10;;;;;;;-1.09;86.77;99337.04;120086;1151;22940;-66
2021/01/14 07:19:18;;;;;;;14.03;3.10;;;;;;;-1.07;86.61;99344.83;120064;1151;23351;-66
2021/01/14 07:21:50;;;;;;;18.17;3.90;;;;;;;-1.06;87.43;99346.39;120216;1150;22942;-68
2021/01/14 07:24:23;;;;;;;12.37;3.47;;;;;;;-1.06;87.27;99355.38;120182;1150;23034;-68
2021/01/14 07:26:57;;;;;;;12.47;3.03;;;;;;;-1.06;87.60;99360.08;120040;1150;22929;-69
2021/01/14 07:29:28;;;;;;;16.57;3.10;;;;;;;-1.06;86.71;99363.60;120113;1150;22937;-67
2021/01/14 07:32:00;;;;;;;13.00;3.67;;;;;;;-1.05;87.37;99369.83;120132;1150;22951;-67
2021/01/14 07:34:37;;;;;;;11.87;2.83;;;;;;;-1.04;86.84;99379.61;120002;1150;23396;-67
2021/01/14 07:37:10;;;;;;;11.15;2.45;;;;;;;-1.04;87.23;99387.83;120045;1150;27361;-67
2021/01/14 07:39:56;;;;;;;12.57;3.07;;;;;;;-1.06;87.86;99392.95;120122;1150;22957;-67
2021/01/14 07:42:28;;;;;;;9.63;2.73;;;;;;;-1.06;86.97;99395.69;120014;1150;22960;-68
2021/01/14 07:45:00;;;;;;;10.47;2.90;;;;;;;-1.07;87.48;99397.65;120130;1150;25957;-66
2021/01/14 07:47:33;;;;;;;14.70;4.37;;;;;;;-1.06;87.72;99390.99;120008;1150;22929;-68
2021/01/14 07:50:22;;;;;;;16.03;3.77;;;;;;;-1.03;87.64;99400.31;120117;1150;23093;-66
2021/01/14 07:52:54;;;;;;;18.20;4.80;;;;;;;-1.00;87.43;99404.96;120112;1149;26402;-66
2021/01/14 07:55:28;;;;;;;17.63;4.77;;;;;;;-0.98;86.97;99400.61;120098;1149;22937;-66
2021/01/14 07:58:04;;;;;;;19.70;4.93;;;;;;;-0.97;87.86;99402.14;120038;1150;22951;-67
2021/01/14 08:00:35;;;;;;;18.80;5.13;;;;;;;-0.96;87.00;99411.92;120099;1150;22917;-67
2021/01/14 08:03:12;;;;;;;19.82;5.10;;;;;;;-0.94;87.73;99414.23;120170;1150;22940;-67
2021/01/14 08:05:44;;;;;;;14.07;4.23;;;;;;;-0.94;87.25;99415.02;120013;1149;22932;-67
2021/01/14 08:08:31;;;;;;;14.00;4.40;;;;;;;-0.91;86.95;99427.10;120136;1149;23112;-67
2021/01/14 08:11:19;;;;;;;13.75;4.40;;;;;;;-0.91;87.58;99427.85;120215;1150;22929;-67
2021/01/14 08:14:09;;;;;;;18.17;4.20;;;;;;;-0.90;86.98;99431.38;120137;1149;22964;-68
2021/01/14 08:16:47;;;;;;;16.33;4.90;;;;;;;-0.90;87.12;99447.81;120189;1150;23090;-68
2021/01/14 08:19:33;;;;;;;12.87;4.40;;;;;;;-0.90;87.31;99456.81;120149;1150;22958;-67
2021/01/14 08:22:07;;;;;;;18.60;4.50;;;;;;;-0.86;87.56;99462.22;120030;1150;22948;-69
2021/01/14 08:24:45;;;;;;;18.37;4.50;;;;;;;-0.83;87.97;99464.12;120219;1149;26703;-67
2021/01/14 08:27:22;;;;;;;15.70;4.80;;;;;;;-0.81;88.11;99478.93;120183;1149;22940;-67
2021/01/14 08:30:02;;;;;;;15.80;4.27;;;;;;;-0.80;88.10;99482.45;120096;1149;22940;-66
2021/01/14 08:32:43;;;;;;;17.92;4.65;;;;;;;-0.78;87.81;99490.24;120212;1150;24567;-66
2021/01/14 08:35:22;;;;;;;15.57;4.80;;;;;;;-0.78;87.13;99501.20;120141;1150;23210;-67
2021/01/14 08:37:54;;;;;;;26.15;6.80;;;;;;;-0.76;87.28;99494.11;120108;1150;22995;-67
2021/01/14 08:40:30;;;;;;;16.23;5.07;;;;;;;-0.76;87.25;99501.56;120137;1150;22954;-67
2021/01/14 08:43:04;;;;;;;18.30;5.57;;;;;;;-0.74;87.29;99507.39;120137;1150;24520;-67
2021/01/14 08:45:37;;;;;;;19.20;5.53;;;;;;;-0.72;87.28;99516.74;120227;1149;22968;-67
2021/01/14 08:48:09;;;;;;;16.75;4.15;;;;;;;-0.71;87.47;99523.00;120119;1150;23085;-68
2021/01/14 08:50:51;;;;;;;16.07;4.20;;;;;;;-0.70;87.54;99527.31;120250;1150;23097;-68
2021/01/14 08:53:27;;;;;;;;;;;;;;;-0.68;88.22;99533.89;120167;1150;22934;-70
2021/01/14 08:55:59;;;;;;;17.40;4.20;;;;;;;-0.66;88.32;99544.46;120192;1149;21632;-67
2021/01/14 08:58:42;;;;;;;17.53;5.97;;;;;;;-0.67;87.47;99546.42;120160;1150;22965;-68
2021/01/14 09:01:17;;;;;;;16.03;4.73;;;;;;;-0.67;87.70;99551.13;120044;1150;22979;-68
2021/01/14 09:03:49;;;;;;;17.70;4.90;;;;;;;-0.67;88.30;99553.86;120186;1150;22890;-68
2021/01/14 09:06:32;;;;;;;18.03;5.47;;;;;;;-0.67;87.72;99567.56;119888;1149;22954;-68
2021/01/14 09:09:03;;;;;;;16.63;4.53;;;;;;;-0.68;88.19;99575.01;120245;1149;22944;-68
2021/01/14 09:11:34;;;;;;;16.90;5.10;;;;;;;-0.67;88.27;99575.79;119961;1150;22981;-68
2021/01/14 09:14:10;;;;;;;15.70;5.07;;;;;;;-0.64;88.11;99583.94;119950;1151;22965;-68
2021/01/14 09:16:42;;;;;;;20.20;6.00;;;;;;;-0.61;87.95;99588.59;120368;1149;26664;-67
2021/01/14 09:19:14;;;;;;;17.47;5.63;;;;;;;-0.59;87.79;99591.69;119943;1149;22944;-67
2021/01/14 09:21:45;;;;;;;17.63;5.67;;;;;;;-0.56;87.85;99599.06;120227;1150;26392;-67
2021/01/14 09:24:14;;;;;;;;;;;;;;;-0.52;87.80;99609.98;119986;1150;22929;-67
2021/01/14 09:26:50;;;;;;;20.85;7.08;;;;;;;-0.49;88.42;99614.61;120213;1150;21566;-67
2021/01/14 09:29:29;;;;;;;18.90;5.97;;;;;;;-0.46;88.36;99622.02;119974;1150;22929;-67
2021/01/14 09:32:10;;;;;;;18.07;6.50;;;;;;;-0.44;88.56;99625.89;120026;1150;22961;-68
2021/01/14 09:34:41;;;;;;;24.77;7.70;;;;;;;-0.40;88.15;99628.56;120104;1149;22989;-68
2021/01/14 09:37:16;;;;;;;;;;;;;;;-0.37;88.79;99631.23;120068;1149;22954;-68
2021/01/14 09:39:46;;;;;;;22.25;8.55;;;;;;;-0.33;87.94;99628.44;120155;1149;22958;-67
2021/01/14 09:42:19;;;;;;;27.30;8.85;;;;;;;-0.29;88.50;99631.89;119986;1149;22926;-67
2021/01/14 09:44:50;;;;;;;25.55;8.75;;;;;;;-0.25;88.17;99640.83;119992;1149;22951;-66
2021/01/14 09:47:21;;;;;;;22.90;9.00;;;;;;;-0.22;88.38;99642.70;120071;1149;22944;-68
2021/01/14 09:49:52;;;;;;;24.23;9.17;;;;;;;-0.20;88.52;99645.80;120185;1150;27248;-69
2021/01/14 09:52:28;;;;;;;28.90;9.63;;;;;;;-0.17;88.47;99656.73;119989;1150;27329;-67
2021/01/14 09:54:59;;;;;;;23.83;9.30;;;;;;;-0.14;88.20;99661.36;120119;1150;27704;-67
2021/01/14 09:57:33;;;;;;;24.10;9.60;;;;;;;-0.12;88.45;99664.45;119919;1150;22891;-68
2021/01/14 10:00:07;;;;;;;29.40;11.35;;;;;;;-0.10;88.36;99664.81;119999;1150;27729;-69
2021/01/14 10:02:40;;;;;;;26.33;11.00;;;;;;;-0.09;88.52;99668.34;120300;1149;22954;-67
2021/01/14 10:05:15;;;;;;;31.93;12.40;;;;;;;-0.09;88.55;99671.86;120184;1150;22943;-67
2021/01/14 10:07:48;;;;;;;30.80;12.80;;;;;;;-0.09;88.62;99674.61;120141;1150;27329;-67
2021/01/14 10:10:19;;;;;;;36.13;15.60;;;;;;;-0.08;88.25;99689.86;120088;1150;22957;-67
2021/01/14 10:12:58;;;;;;;39.53;16.13;;;;;;;-0.06;88.61;99676.48;120156;1150;27781;-66
2021/01/14 10:15:29;;;;;;;51.17;23.43;;;;;;;-0.01;88.66;99695.22;120587;1150;22933;-68
2021/01/14 10:18:00;;;;;;;43.63;20.87;;;;;;;0.05;88.70;99691.97;120001;1150;26427;-68
2021/01/14 10:20:33;;;;;;;59.00;26.50;;;;;;;0.09;88.06;99695.42;120118;1149;23393;-67
2021/01/14 10:23:04;;;;;;;52.43;23.50;;;;;;;0.13;88.57;99702.39;120115;1150;22923;-71
2021/01/14 10:25:35;;;;;;;54.53;25.70;;;;;;;0.19;88.61;99705.45;120916;1149;22932;-70
2021/01/14 10:28:10;;;;;;;48.37;22.57;;;;;;;0.20;88.74;99710.50;120477;1150;22948;-72
2021/01/14 10:30:41;;;;;;;45.67;19.73;;;;;;;0.22;88.39;99719.09;120640;1150;24564;-69
2021/01/14 10:33:12;;;;;;;46.10;20.80;;;;;;;0.23;88.26;99717.88;120642;1149;23030;-70
2021/01/14 10:35:43;;;;;;;41.50;17.23;;;;;;;0.23;88.80;99726.12;120542;1150;23018;-69
2021/01/14 10:38:14;;;;;;;48.40;20.63;;;;;;;0.25;88.25;99734.70;119990;1150;22937;-69
2021/01/14 10:40:45;;;;;;;45.80;19.33;;;;;;;0.28;88.59;99733.09;120067;1150;22930;-70
2021/01/14 10:43:28;;;;;;;42.33;17.00;;;;;;;0.33;87.94;99738.11;122145;1149;27315;-69
2021/01/14 10:45:59;;;;;;;44.30;19.67;;;;;;;0.40;88.69;99741.48;120146;1150;23022;-72
2021/01/14 10:48:37;;;;;;;;;;;;;;;0.49;88.53;99751.90;120673;1149;22923;-69
2021/01/14 10:51:07;;;;;;;45.10;18.13;;;;;;;0.55;88.32;99750.98;120974;1150;21565;-77
2021/01/14 10:53:38;;;;;;;56.10;21.83;;;;;;;0.58;87.83;99760.36;120732;1149;22959;-71
2021/01/14 10:56:11;;;;;;;51.83;21.67;;;;;;;0.62;88.21;99766.55;120294;1150;23071;-70
2021/01/14 10:58:42;;;;;;;51.20;21.30;;;;;;;0.63;87.59;99762.59;120068;1150;23034;-69
2021/01/14 11:01:18;;;;;;;62.83;24.97;;;;;;;0.63;88.08;99765.34;120083;1150;22955;-69
2021/01/14 11:03:49;;;;;;;51.73;23.00;;;;;;;0.68;88.05;99778.59;120114;1149;24353;-70
2021/01/14 11:06:34;;;;;;;53.50;23.20;;;;;;;0.73;88.17;99775.33;120045;1150;22935;-68
2021/01/14 11:09:08;;;;;;;52.97;22.33;;;;;;;0.76;87.58;99777.25;120131;1150;23093;-67
2021/01/14 11:11:40;;;;;;;60.90;24.17;;;;;;;0.81;87.92;99787.73;120070;1149;22933;-68
2021/01/14 11:14:16;;;;;;;52.50;22.87;;;;;;;0.83;87.69;99788.86;120065;1150;22951;-67
2021/01/14 11:16:46;;;;;;;53.17;22.97;;;;;;;0.85;87.23;99795.91;120174;1150;23004;-69
2021/01/14 11:19:17;;;;;;;51.53;21.67;;;;;;;0.86;87.10;99789.98;120149;1150;22974;-69
2021/01/14 11:21:47;;;;;;;55.17;23.67;;;;;;;0.86;86.86;99795.48;120347;1149;28291;-68
2021/01/14 11:24:17;;;;;;;54.93;23.18;;;;;;;0.84;86.77;99803.37;120028;1150;26085;-68
2021/01/14 11:26:46;;;;;;;;;;;;;;;0.84;87.53;99806.12;120076;1150;23070;-68
2021/01/14 11:29:17;;;;;;;53.17;21.20;;;;;;;0.79;87.12;99806.61;120280;1150;21711;-68
2021/01/14 11:31:47;;;;;;;49.50;20.73;;;;;;;0.75;86.68;99814.15;119982;1150;23094;-68
2021/01/14 11:34:17;;;;;;;54.10;22.55;;;;;;;0.68;86.62;99817.80;120257;1150;22940;-68
2021/01/14 11:36:47;;;;;;;56.00;23.22;;;;;;;0.61;86.33;99819.92;120077;1149;22951;-67
2021/01/14 11:39:18;;;;;;;50.88;21.02;;;;;;;0.56;86.52;99823.18;120125;1150;22940;-68
2021/01/14 11:41:53;;;;;;;56.43;22.10;;;;;;;0.52;86.86;99814.98;120048;1150;22982;-68
2021/01/14 11:44:23;;;;;;;56.50;23.17;;;;;;;0.47;86.98;99823.73;120077;1149;22979;-68
2021/01/14 11:46:54;;;;;;;52.80;21.62;;;;;;;0.44;86.35;99835.55;120020;1150;22930;-68
2021/01/14 11:49:24;;;;;;;48.93;20.20;;;;;;;0.44;86.70;99838.29;120072;1150;22948;-68
2021/01/14 11:51:54;;;;;;;50.38;19.45;;;;;;;0.45;86.98;99847.31;119900;1150;22917;-67